sensor_id;sensor_type;location;lat;lon;timestamp;pressure;altitude;pressure_sealevel;temperature;humidity
31717;BME280;18301;51.076;17.046;2024-01-15T00:00:46;98259.50;;;2.56;83.52
31717;BME280;18301;51.076;17.046;2024-01-15T00:05:48;98246.03;;;2.58;82.53
31717;BME280;18301;51.076;17.046;2024-01-15T00:10:50;98240.53;;;2.83;81.41
31717;BME280;18301;51.076;17.046;2024-01-15T00:15:51;98226.38;;;2.71;81.18
31717;BME280;18301;51.076;17.046;2024-01-15T00:20:53;98219.69;;;2.66;80.79
31717;BME280;18301;51.076;17.046;2024-01-15T00:25:55;98208.00;;;2.44;81.31
31717;BME280;18301;51.076;17.046;2024-01-15T00:30:56;98196.66;;;2.53;80.82
31717;BME280;18301;51.076;17.046;2024-01-15T00:35:58;98178.31;;;2.62;80.18
31717;BME280;18301;51.076;17.046;2024-01-15T00:41:00;98177.28;;;2.51;80.29
31717;BME280;18301;51.076;17.046;2024-01-15T00:46:02;98168.50;;;2.62;79.50
31717;BME280;18301;51.076;17.046;2024-01-15T00:51:04;98168.38;;;2.64;78.81
31717;BME280;18301;51.076;17.046;2024-01-15T00:56:06;98153.09;;;2.54;78.53
31717;BME280;18301;51.076;17.046;2024-01-15T01:01:08;98148.28;;;2.60;77.66
31717;BME280;18301;51.076;17.046;2024-01-15T01:06:09;98152.19;;;2.78;77.99
31717;BME280;18301;51.076;17.046;2024-01-15T01:11:15;98143.69;;;2.73;76.74
31717;BME280;18301;51.076;17.046;2024-01-15T01:16:17;98139.56;;;2.58;77.57
31717;BME280;18301;51.076;17.046;2024-01-15T01:21:18;98138.59;;;2.70;77.02
31717;BME280;18301;51.076;17.046;2024-01-15T01:26:20;98135.44;;;2.65;77.53
31717;BME280;18301;51.076;17.046;2024-01-15T01:31:23;98134.50;;;2.88;75.37
31717;BME280;18301;51.076;17.046;2024-01-15T01:36:25;98133.63;;;2.76;76.89
31717;BME280;18301;51.076;17.046;2024-01-15T01:41:26;98126.13;;;2.59;77.29
31717;BME280;18301;51.076;17.046;2024-01-15T01:46:28;98113.06;;;2.79;76.49
31717;BME280;18301;51.076;17.046;2024-01-15T01:51:30;98096.47;;;2.64;76.50
31717;BME280;18301;51.076;17.046;2024-01-15T01:56:32;98100.59;;;2.57;76.30
31717;BME280;18301;51.076;17.046;2024-01-15T02:01:34;98107.25;;;2.51;76.52
31717;BME280;18301;51.076;17.046;2024-01-15T02:06:36;98109.56;;;2.78;77.21
31717;BME280;18301;51.076;17.046;2024-01-15T02:11:38;98097.19;;;2.54;78.73
31717;BME280;18301;51.076;17.046;2024-01-15T02:16:39;98097.16;;;2.32;81.05
31717;BME280;18301;51.076;17.046;2024-01-15T02:21:41;98090.44;;;2.50;80.81
31717;BME280;18301;51.076;17.046;2024-01-15T02:26:43;98089.94;;;2.34;81.89
31717;BME280;18301;51.076;17.046;2024-01-15T02:31:45;98083.63;;;2.35;82.29
31717;BME280;18301;51.076;17.046;2024-01-15T02:36:47;98077.84;;;2.52;81.60
31717;BME280;18301;51.076;17.046;2024-01-15T02:41:49;98066.47;;;2.50;80.04
31717;BME280;18301;51.076;17.046;2024-01-15T02:46:51;98065.25;;;2.32;80.11
31717;BME280;18301;51.076;17.046;2024-01-15T02:51:52;98057.88;;;2.58;80.01
31717;BME280;18301;51.076;17.046;2024-01-15T02:56:54;98044.69;;;2.45;80.44
31717;BME280;18301;51.076;17.046;2024-01-15T03:01:56;98043.47;;;2.38;81.21
31717;BME280;18301;51.076;17.046;2024-01-15T03:06:57;98037.44;;;2.59;80.47
31717;BME280;18301;51.076;17.046;2024-01-15T03:11:59;98019.75;;;2.58;80.48
31717;BME280;18301;51.076;17.046;2024-01-15T03:17:01;98032.56;;;2.64;80.21
31717;BME280;18301;51.076;17.046;2024-01-15T03:22:03;98025.81;;;2.48;79.96
31717;BME280;18301;51.076;17.046;2024-01-15T03:27:05;98002.94;;;2.68;79.69
31717;BME280;18301;51.076;17.046;2024-01-15T03:32:06;98003.78;;;2.69;78.64
31717;BME280;18301;51.076;17.046;2024-01-15T03:37:08;98016.13;;;2.70;78.15
31717;BME280;18301;51.076;17.046;2024-01-15T03:42:10;98010.56;;;2.50;78.28
31717;BME280;18301;51.076;17.046;2024-01-15T03:47:11;98008.25;;;2.57;78.23
31717;BME280;18301;51.076;17.046;2024-01-15T03:52:13;98014.44;;;2.69;78.12
31717;BME280;18301;51.076;17.046;2024-01-15T03:57:15;98009.59;;;2.40;77.29
31717;BME280;18301;51.076;17.046;2024-01-15T04:02:16;97995.06;;;2.67;76.74
31717;BME280;18301;51.076;17.046;2024-01-15T04:07:18;97996.63;;;2.81;76.23
31717;BME280;18301;51.076;17.046;2024-01-15T04:12:20;97996.75;;;2.45;76.39
31717;BME280;18301;51.076;17.046;2024-01-15T04:17:21;97985.38;;;2.66;76.53
31717;BME280;18301;51.076;17.046;2024-01-15T04:22:24;97971.13;;;2.44;76.91
31717;BME280;18301;51.076;17.046;2024-01-15T04:27:26;97976.94;;;2.49;77.69
31717;BME280;18301;51.076;17.046;2024-01-15T04:32:28;97973.56;;;2.59;77.35
31717;BME280;18301;51.076;17.046;2024-01-15T04:37:29;97967.84;;;2.52;77.28
31717;BME280;18301;51.076;17.046;2024-01-15T04:42:31;97947.28;;;2.54;76.95
31717;BME280;18301;51.076;17.046;2024-01-15T04:47:33;97943.78;;;2.53;76.24
31717;BME280;18301;51.076;17.046;2024-01-15T04:52:34;97943.25;;;2.71;76.35
31717;BME280;18301;51.076;17.046;2024-01-15T04:57:36;97950.09;;;2.52;76.19
31717;BME280;18301;51.076;17.046;2024-01-15T05:02:38;97951.63;;;2.66;76.14
31717;BME280;18301;51.076;17.046;2024-01-15T05:07:39;97951.03;;;2.63;75.22
31717;BME280;18301;51.076;17.046;2024-01-15T05:12:41;97943.16;;;2.61;75.75
31717;BME280;18301;51.076;17.046;2024-01-15T05:17:42;97945.94;;;2.60;75.57
31717;BME280;18301;51.076;17.046;2024-01-15T05:22:44;97946.19;;;2.57;76.11
31717;BME280;18301;51.076;17.046;2024-01-15T05:27:46;97953.59;;;2.53;76.42
31717;BME280;18301;51.076;17.046;2024-01-15T05:32:48;97956.47;;;2.61;77.41
31717;BME280;18301;51.076;17.046;2024-01-15T05:37:49;97963.34;;;2.64;77.73
31717;BME280;18301;51.076;17.046;2024-01-15T05:42:51;97964.34;;;2.51;80.11
31717;BME280;18301;51.076;17.046;2024-01-15T05:47:53;97967.97;;;2.62;81.55
31717;BME280;18301;51.076;17.046;2024-01-15T05:52:54;97965.56;;;2.36;81.59
31717;BME280;18301;51.076;17.046;2024-01-15T05:57:56;97983.47;;;2.34;82.78
31717;BME280;18301;51.076;17.046;2024-01-15T06:02:58;97977.41;;;2.21;84.71
31717;BME280;18301;51.076;17.046;2024-01-15T06:08:00;97974.13;;;2.06;86.62
31717;BME280;18301;51.076;17.046;2024-01-15T06:13:03;97973.19;;;2.29;84.63
31717;BME280;18301;51.076;17.046;2024-01-15T06:18:05;97964.84;;;2.34;84.78
31717;BME280;18301;51.076;17.046;2024-01-15T06:23:07;97974.03;;;2.19;85.64
31717;BME280;18301;51.076;17.046;2024-01-15T06:28:08;97961.44;;;2.21;85.07
31717;BME280;18301;51.076;17.046;2024-01-15T06:33:11;97971.38;;;2.30;84.38
31717;BME280;18301;51.076;17.046;2024-01-15T06:38:12;97974.03;;;2.19;84.96
31717;BME280;18301;51.076;17.046;2024-01-15T06:43:14;97987.09;;;2.11;85.10
31717;BME280;18301;51.076;17.046;2024-01-15T06:48:19;97995.06;;;2.11;85.42
31717;BME280;18301;51.076;17.046;2024-01-15T06:53:21;98005.25;;;2.28;84.75
31717;BME280;18301;51.076;17.046;2024-01-15T06:58:23;98005.84;;;2.20;84.87
31717;BME280;18301;51.076;17.046;2024-01-15T07:03:24;98019.50;;;2.16;84.45
31717;BME280;18301;51.076;17.046;2024-01-15T07:08:26;98017.31;;;2.10;84.54
31717;BME280;18301;51.076;17.046;2024-01-15T07:13:28;98023.59;;;2.08;84.54
31717;BME280;18301;51.076;17.046;2024-01-15T07:18:30;98028.56;;;2.13;84.39
31717;BME280;18301;51.076;17.046;2024-01-15T07:23:32;98029.16;;;2.17;83.41
31717;BME280;18301;51.076;17.046;2024-01-15T07:28:33;98037.19;;;2.28;82.83
31717;BME280;18301;51.076;17.046;2024-01-15T07:33:35;98042.84;;;2.46;80.78
31717;BME280;18301;51.076;17.046;2024-01-15T07:38:37;98029.91;;;2.30;79.47
31717;BME280;18301;51.076;17.046;2024-01-15T07:43:39;98031.88;;;2.50;78.94
31717;BME280;18301;51.076;17.046;2024-01-15T07:48:40;98035.03;;;2.56;77.57
31717;BME280;18301;51.076;17.046;2024-01-15T07:53:42;98019.50;;;2.72;77.14
31717;BME280;18301;51.076;17.046;2024-01-15T07:58:44;98019.03;;;2.78;75.00
31717;BME280;18301;51.076;17.046;2024-01-15T08:03:45;97997.41;;;3.04;73.82
31717;BME280;18301;51.076;17.046;2024-01-15T08:08:47;97991.41;;;2.90;72.18
31717;BME280;18301;51.076;17.046;2024-01-15T08:13:49;98012.13;;;2.87;72.64
31717;BME280;18301;51.076;17.046;2024-01-15T08:18:50;97997.16;;;3.07;71.25
31717;BME280;18301;51.076;17.046;2024-01-15T08:23:52;97996.25;;;2.74;69.52
31717;BME280;18301;51.076;17.046;2024-01-15T08:28:54;97997.22;;;2.84;71.05
31717;BME280;18301;51.076;17.046;2024-01-15T08:33:56;97997.81;;;2.88;70.96
31717;BME280;18301;51.076;17.046;2024-01-15T08:38:58;97999.41;;;3.22;68.16
31717;BME280;18301;51.076;17.046;2024-01-15T08:43:59;98010.06;;;2.90;69.69
31717;BME280;18301;51.076;17.046;2024-01-15T08:49:01;98012.72;;;2.90;68.05
31717;BME280;18301;51.076;17.046;2024-01-15T08:54:05;98025.75;;;3.05;68.36
31717;BME280;18301;51.076;17.046;2024-01-15T08:59:06;98009.88;;;3.14;68.27
31717;BME280;18301;51.076;17.046;2024-01-15T09:04:08;98017.63;;;3.06;66.37
31717;BME280;18301;51.076;17.046;2024-01-15T09:09:10;97999.09;;;3.16;66.24
31717;BME280;18301;51.076;17.046;2024-01-15T09:14:12;98003.44;;;3.17;67.56
31717;BME280;18301;51.076;17.046;2024-01-15T09:19:17;98000.13;;;3.36;65.25
31717;BME280;18301;51.076;17.046;2024-01-15T09:24:18;98003.81;;;3.44;66.98
31717;BME280;18301;51.076;17.046;2024-01-15T09:29:29;98000.75;;;3.28;64.72
31717;BME280;18301;51.076;17.046;2024-01-15T09:34:30;97993.41;;;3.41;66.37
31717;BME280;18301;51.076;17.046;2024-01-15T09:39:32;98001.22;;;3.33;64.76
31717;BME280;18301;51.076;17.046;2024-01-15T09:44:34;97992.75;;;3.28;65.67
31717;BME280;18301;51.076;17.046;2024-01-15T09:49:36;97994.72;;;3.15;66.26
31717;BME280;18301;51.076;17.046;2024-01-15T09:54:40;97989.94;;;3.62;64.96
31717;BME280;18301;51.076;17.046;2024-01-15T09:59:43;98007.56;;;3.74;64.63
31717;BME280;18301;51.076;17.046;2024-01-15T10:04:45;97978.97;;;3.76;63.65
31717;BME280;18301;51.076;17.046;2024-01-15T10:09:47;97995.81;;;3.44;64.20
31717;BME280;18301;51.076;17.046;2024-01-15T10:14:50;97997.28;;;3.49;64.69
31717;BME280;18301;51.076;17.046;2024-01-15T10:19:52;97987.78;;;3.56;64.82
31717;BME280;18301;51.076;17.046;2024-01-15T10:24:54;97980.50;;;4.00;63.64
31717;BME280;18301;51.076;17.046;2024-01-15T10:29:59;97992.88;;;3.59;64.59
31717;BME280;18301;51.076;17.046;2024-01-15T10:35:03;97977.63;;;3.50;64.20
31717;BME280;18301;51.076;17.046;2024-01-15T10:40:06;97974.13;;;4.12;63.13
31717;BME280;18301;51.076;17.046;2024-01-15T10:45:08;97982.31;;;3.78;63.50
31717;BME280;18301;51.076;17.046;2024-01-15T10:50:10;97980.13;;;3.83;62.65
31717;BME280;18301;51.076;17.046;2024-01-15T10:55:12;97971.22;;;3.73;62.07
31717;BME280;18301;51.076;17.046;2024-01-15T11:00:20;97956.00;;;3.85;63.13
31717;BME280;18301;51.076;17.046;2024-01-15T11:05:22;97946.63;;;4.21;61.74
31717;BME280;18301;51.076;17.046;2024-01-15T11:10:44;97948.09;;;4.66;59.59
31717;BME280;18301;51.076;17.046;2024-01-15T11:16:00;97953.91;;;4.90;58.71
31717;BME280;18301;51.076;17.046;2024-01-15T11:26:46;97946.91;;;5.18;59.05
31717;BME280;18301;51.076;17.046;2024-01-15T11:41:51;97959.25;;;4.80;57.72
31717;BME280;18301;51.076;17.046;2024-01-15T11:47:03;97956.94;;;4.66;58.37
31717;BME280;18301;51.076;17.046;2024-01-15T11:52:06;97960.75;;;4.33;60.09
31717;BME280;18301;51.076;17.046;2024-01-15T11:57:10;97950.22;;;4.81;60.23
31717;BME280;18301;51.076;17.046;2024-01-15T12:02:16;97949.38;;;4.81;58.45
31717;BME280;18301;51.076;17.046;2024-01-15T12:07:18;97967.63;;;4.66;57.84
31717;BME280;18301;51.076;17.046;2024-01-15T12:17:46;97949.19;;;4.23;60.33
31717;BME280;18301;51.076;17.046;2024-01-15T12:22:49;97958.81;;;4.14;60.02
31717;BME280;18301;51.076;17.046;2024-01-15T12:28:02;97968.16;;;3.99;61.45
31717;BME280;18301;51.076;17.046;2024-01-15T12:33:05;97967.63;;;4.05;61.69
31717;BME280;18301;51.076;17.046;2024-01-15T12:38:07;97963.63;;;4.20;60.73
31717;BME280;18301;51.076;17.046;2024-01-15T12:43:08;97968.03;;;3.79;61.80
31717;BME280;18301;51.076;17.046;2024-01-15T12:48:10;97943.78;;;3.61;61.95
31717;BME280;18301;51.076;17.046;2024-01-15T12:53:12;97953.19;;;3.86;62.20
31717;BME280;18301;51.076;17.046;2024-01-15T12:58:19;97951.13;;;4.21;61.31
31717;BME280;18301;51.076;17.046;2024-01-15T13:03:22;97955.44;;;4.12;60.90
31717;BME280;18301;51.076;17.046;2024-01-15T13:08:24;97960.03;;;3.79;62.05
31717;BME280;18301;51.076;17.046;2024-01-15T13:13:28;97954.88;;;3.87;61.75
31717;BME280;18301;51.076;17.046;2024-01-15T13:18:29;97944.59;;;3.62;62.55
31717;BME280;18301;51.076;17.046;2024-01-15T13:23:32;97943.00;;;3.71;62.92
31717;BME280;18301;51.076;17.046;2024-01-15T13:28:34;97969.94;;;3.35;63.01
31717;BME280;18301;51.076;17.046;2024-01-15T13:33:35;97957.38;;;3.26;63.53
31717;BME280;18301;51.076;17.046;2024-01-15T13:38:38;97957.13;;;3.29;63.49
31717;BME280;18301;51.076;17.046;2024-01-15T13:43:40;97948.78;;;3.55;63.79
31717;BME280;18301;51.076;17.046;2024-01-15T13:48:42;97948.19;;;3.72;62.03
31717;BME280;18301;51.076;17.046;2024-01-15T13:53:44;97962.28;;;3.63;62.58
31717;BME280;18301;51.076;17.046;2024-01-15T13:58:46;97960.09;;;3.68;63.47
31717;BME280;18301;51.076;17.046;2024-01-15T14:03:49;97962.41;;;3.40;62.70
31717;BME280;18301;51.076;17.046;2024-01-15T14:08:51;97973.72;;;3.54;63.12
31717;BME280;18301;51.076;17.046;2024-01-15T14:13:53;97991.38;;;3.66;63.16
31717;BME280;18301;51.076;17.046;2024-01-15T14:18:56;97994.13;;;3.43;64.33
31717;BME280;18301;51.076;17.046;2024-01-15T14:23:57;98003.38;;;3.39;64.80
31717;BME280;18301;51.076;17.046;2024-01-15T14:28:59;97986.41;;;3.40;64.46
31717;BME280;18301;51.076;17.046;2024-01-15T14:34:01;97987.78;;;3.56;64.51
31717;BME280;18301;51.076;17.046;2024-01-15T14:39:04;97998.16;;;3.06;65.45
31717;BME280;18301;51.076;17.046;2024-01-15T14:44:06;97985.81;;;2.93;65.90
31717;BME280;18301;51.076;17.046;2024-01-15T14:49:08;97992.34;;;3.00;65.25
31717;BME280;18301;51.076;17.046;2024-01-15T14:54:10;97986.09;;;3.22;64.67
31717;BME280;18301;51.076;17.046;2024-01-15T14:59:12;98007.03;;;2.72;65.86
31717;BME280;18301;51.076;17.046;2024-01-15T15:04:13;97999.41;;;2.90;65.42
31717;BME280;18301;51.076;17.046;2024-01-15T15:09:15;98000.91;;;3.15;64.81
31717;BME280;18301;51.076;17.046;2024-01-15T15:14:17;98017.16;;;3.01;65.38
31717;BME280;18301;51.076;17.046;2024-01-15T15:19:19;98019.66;;;3.14;64.01
31717;BME280;18301;51.076;17.046;2024-01-15T15:24:21;98027.72;;;2.80;65.91
31717;BME280;18301;51.076;17.046;2024-01-15T15:29:22;98031.53;;;3.21;64.37
31717;BME280;18301;51.076;17.046;2024-01-15T15:34:26;98037.75;;;2.99;65.43
31717;BME280;18301;51.076;17.046;2024-01-15T15:39:28;98054.50;;;2.90;65.62
31717;BME280;18301;51.076;17.046;2024-01-15T15:44:29;98049.50;;;2.74;67.00
31717;BME280;18301;51.076;17.046;2024-01-15T15:49:31;98058.94;;;2.89;67.02
31717;BME280;18301;51.076;17.046;2024-01-15T15:54:33;98062.84;;;2.85;66.45
31717;BME280;18301;51.076;17.046;2024-01-15T15:59:35;98073.72;;;2.82;67.36
31717;BME280;18301;51.076;17.046;2024-01-15T16:04:36;98083.28;;;2.85;68.18
31717;BME280;18301;51.076;17.046;2024-01-15T16:09:38;98082.94;;;2.78;69.73
31717;BME280;18301;51.076;17.046;2024-01-15T16:14:42;98070.56;;;2.77;69.52
31717;BME280;18301;51.076;17.046;2024-01-15T16:19:45;98077.84;;;2.75;71.28
31717;BME280;18301;51.076;17.046;2024-01-15T16:25:07;98090.16;;;2.65;71.56
31717;BME280;18301;51.076;17.046;2024-01-15T16:30:10;98083.66;;;2.69;71.21
31717;BME280;18301;51.076;17.046;2024-01-15T16:35:26;98093.34;;;2.81;71.93
31717;BME280;18301;51.076;17.046;2024-01-15T16:40:28;98101.19;;;2.83;72.31
31717;BME280;18301;51.076;17.046;2024-01-15T16:45:30;98098.16;;;2.31;74.13
31717;BME280;18301;51.076;17.046;2024-01-15T16:50:32;98111.59;;;2.41;75.13
31717;BME280;18301;51.076;17.046;2024-01-15T16:55:33;98108.31;;;2.48;74.93
31717;BME280;18301;51.076;17.046;2024-01-15T17:00:35;98121.84;;;2.34;76.26
31717;BME280;18301;51.076;17.046;2024-01-15T17:05:37;98114.69;;;2.23;77.34
31717;BME280;18301;51.076;17.046;2024-01-15T17:10:39;98118.50;;;2.54;76.03
31717;BME280;18301;51.076;17.046;2024-01-15T17:15:42;98127.09;;;2.47;76.47
31717;BME280;18301;51.076;17.046;2024-01-15T17:20:43;98132.56;;;2.79;74.35
31717;BME280;18301;51.076;17.046;2024-01-15T17:25:47;98123.78;;;2.32;76.54
31717;BME280;18301;51.076;17.046;2024-01-15T17:30:49;98135.16;;;2.45;75.73
31717;BME280;18301;51.076;17.046;2024-01-15T17:35:52;98128.44;;;2.64;75.37
31717;BME280;18301;51.076;17.046;2024-01-15T17:40:54;98142.25;;;2.69;75.44
31717;BME280;18301;51.076;17.046;2024-01-15T17:45:56;98133.03;;;2.62;74.91
31717;BME280;18301;51.076;17.046;2024-01-15T17:51:02;98147.69;;;2.56;75.03
31717;BME280;18301;51.076;17.046;2024-01-15T17:56:04;98150.66;;;2.40;75.93
31717;BME280;18301;51.076;17.046;2024-01-15T18:01:06;98139.06;;;2.52;73.88
31717;BME280;18301;51.076;17.046;2024-01-15T18:06:08;98154.59;;;2.59;72.81
31717;BME280;18301;51.076;17.046;2024-01-15T18:11:17;98158.44;;;2.66;73.58
31717;BME280;18301;51.076;17.046;2024-01-15T18:16:19;98164.53;;;2.79;73.92
31717;BME280;18301;51.076;17.046;2024-01-15T18:21:25;98166.13;;;2.93;73.55
31717;BME280;18301;51.076;17.046;2024-01-15T18:26:26;98170.81;;;2.89;73.24
31717;BME280;18301;51.076;17.046;2024-01-15T18:31:28;98182.84;;;2.48;74.44
31717;BME280;18301;51.076;17.046;2024-01-15T18:36:31;98180.97;;;2.26;75.63
31717;BME280;18301;51.076;17.046;2024-01-15T18:41:33;98178.03;;;2.65;74.71
31717;BME280;18301;51.076;17.046;2024-01-15T18:46:35;98193.19;;;2.29;76.32
31717;BME280;18301;51.076;17.046;2024-01-15T18:51:36;98176.13;;;2.56;74.68
31717;BME280;18301;51.076;17.046;2024-01-15T18:56:41;98188.88;;;2.39;75.50
31717;BME280;18301;51.076;17.046;2024-01-15T19:01:43;98190.53;;;2.29;76.23
31717;BME280;18301;51.076;17.046;2024-01-15T19:06:45;98194.97;;;2.17;76.19
31717;BME280;18301;51.076;17.046;2024-01-15T19:11:50;98196.38;;;2.34;76.05
31717;BME280;18301;51.076;17.046;2024-01-15T19:16:51;98197.59;;;2.41;75.52
31717;BME280;18301;51.076;17.046;2024-01-15T19:21:54;98206.00;;;2.24;75.63
31717;BME280;18301;51.076;17.046;2024-01-15T19:26:55;98218.81;;;2.54;74.93
31717;BME280;18301;51.076;17.046;2024-01-15T19:31:57;98218.84;;;2.06;76.58
31717;BME280;18301;51.076;17.046;2024-01-15T19:37:00;98223.53;;;2.50;74.90
31717;BME280;18301;51.076;17.046;2024-01-15T19:42:02;98222.81;;;2.60;73.96
31717;BME280;18301;51.076;17.046;2024-01-15T19:47:04;98234.41;;;2.47;74.53
31717;BME280;18301;51.076;17.046;2024-01-15T19:52:06;98238.28;;;2.43;75.52
31717;BME280;18301;51.076;17.046;2024-01-15T19:57:08;98243.81;;;2.40;75.65
31717;BME280;18301;51.076;17.046;2024-01-15T20:02:10;98250.00;;;2.41;76.27
31717;BME280;18301;51.076;17.046;2024-01-15T20:07:12;98257.97;;;2.17;78.59
31717;BME280;18301;51.076;17.046;2024-01-15T20:12:14;98262.31;;;2.18;79.83
31717;BME280;18301;51.076;17.046;2024-01-15T20:17:17;98271.66;;;1.99;82.57
31717;BME280;18301;51.076;17.046;2024-01-15T20:22:19;98281.84;;;2.05;81.58
31717;BME280;18301;51.076;17.046;2024-01-15T20:27:21;98289.56;;;1.84;83.49
31717;BME280;18301;51.076;17.046;2024-01-15T20:32:23;98293.16;;;1.96;83.00
31717;BME280;18301;51.076;17.046;2024-01-15T20:37:25;98299.75;;;1.91;82.47
31717;BME280;18301;51.076;17.046;2024-01-15T20:42:26;98307.16;;;1.61;83.23
31717;BME280;18301;51.076;17.046;2024-01-15T20:47:28;98318.09;;;1.82;82.22
31717;BME280;18301;51.076;17.046;2024-01-15T20:52:33;98317.25;;;1.82;82.51
31717;BME280;18301;51.076;17.046;2024-01-15T20:57:35;98316.06;;;2.23;81.00
31717;BME280;18301;51.076;17.046;2024-01-15T21:02:37;98328.41;;;2.24;81.07
31717;BME280;18301;51.076;17.046;2024-01-15T21:07:39;98315.75;;;1.78;82.94
31717;BME280;18301;51.076;17.046;2024-01-15T21:12:40;98326.38;;;1.78;83.03
31717;BME280;18301;51.076;17.046;2024-01-15T21:17:42;98323.78;;;2.02;81.76
31717;BME280;18301;51.076;17.046;2024-01-15T21:22:46;98333.50;;;2.27;80.93
31717;BME280;18301;51.076;17.046;2024-01-15T21:27:49;98344.13;;;2.27;80.69
31717;BME280;18301;51.076;17.046;2024-01-15T21:32:52;98346.13;;;2.36;80.22
31717;BME280;18301;51.076;17.046;2024-01-15T21:37:54;98363.50;;;2.29;79.94
31717;BME280;18301;51.076;17.046;2024-01-15T21:42:55;98361.59;;;2.18;80.37
31717;BME280;18301;51.076;17.046;2024-01-15T21:47:57;98378.41;;;1.82;81.71
31717;BME280;18301;51.076;17.046;2024-01-15T21:52:59;98386.16;;;1.98;80.76
31717;BME280;18301;51.076;17.046;2024-01-15T21:58:01;98380.41;;;1.91;81.55
31717;BME280;18301;51.076;17.046;2024-01-15T22:03:03;98383.06;;;1.91;81.29
31717;BME280;18301;51.076;17.046;2024-01-15T22:08:05;98399.56;;;1.83;81.72
31717;BME280;18301;51.076;17.046;2024-01-15T22:13:07;98385.75;;;1.91;80.89
31717;BME280;18301;51.076;17.046;2024-01-15T22:18:08;98402.53;;;2.04;80.19
31717;BME280;18301;51.076;17.046;2024-01-15T22:23:10;98401.41;;;2.33;79.38
31717;BME280;18301;51.076;17.046;2024-01-15T22:28:12;98412.31;;;2.53;78.92
31717;BME280;18301;51.076;17.046;2024-01-15T22:33:14;98416.28;;;2.35;79.44
31717;BME280;18301;51.076;17.046;2024-01-15T22:38:16;98419.03;;;2.10;80.46
31717;BME280;18301;51.076;17.046;2024-01-15T22:43:17;98417.78;;;2.39;79.82
31717;BME280;18301;51.076;17.046;2024-01-15T22:48:19;98419.72;;;2.37;79.45
31717;BME280;18301;51.076;17.046;2024-01-15T22:53:21;98429.50;;;2.24;79.79
31717;BME280;18301;51.076;17.046;2024-01-15T22:58:22;98430.56;;;2.34;79.67
31717;BME280;18301;51.076;17.046;2024-01-15T23:03:24;98422.38;;;2.37;80.32
31717;BME280;18301;51.076;17.046;2024-01-15T23:08:26;98435.25;;;2.43;80.30
31717;BME280;18301;51.076;17.046;2024-01-15T23:13:27;98438.84;;;2.42;80.76
31717;BME280;18301;51.076;17.046;2024-01-15T23:18:29;98444.69;;;2.47;80.35
31717;BME280;18301;51.076;17.046;2024-01-15T23:23:31;98449.72;;;2.39;82.95
31717;BME280;18301;51.076;17.046;2024-01-15T23:28:32;98469.56;;;2.10;85.23
31717;BME280;18301;51.076;17.046;2024-01-15T23:33:34;98464.47;;;2.06;85.55
31717;BME280;18301;51.076;17.046;2024-01-15T23:38:37;98450.00;;;1.85;87.30
31717;BME280;18301;51.076;17.046;2024-01-15T23:43:39;98466.34;;;1.66;90.61
31717;BME280;18301;51.076;17.046;2024-01-15T23:48:41;98457.63;;;1.64;89.61
31717;BME280;18301;51.076;17.046;2024-01-15T23:53:43;98460.81;;;1.56;91.00
31717;BME280;18301;51.076;17.046;2024-01-15T23:58:45;98458.88;;;1.46;93.51
